Time;durP1;ratioP1;P1;durP2;ratioP2;P2;SDS_P1;SDS_P2;PMS_P1;PMS_P2;Temp;Humidity;BMP_temperature;BMP_pressure;BME280_temperature;BME280_humidity;BME280_pressure;Samples;Min_cycle;Max_cycle;Signal;HPM_P1;HPM_P2
2023/04/25 00:02:36;;;;;;;2.83;2.60;;;;;;;14.01;48.90;98143.22;7002120;28;20263;-82
2023/04/25 00:05:57;;;;;;;3.10;2.70;;;;;;;14.29;48.70;98164.91;7002261;28;20317;-84
2023/04/25 00:09:20;;;;;;;3.87;2.70;;;;;;;14.12;49.27;98133.38;7002741;28;20216;-84
2023/04/25 00:12:42;;;;;;;3.20;2.60;;;;;;;14.25;48.64;98147.50;7001617;28;20349;-84
2023/04/25 00:16:06;;;;;;;3.17;2.83;;;;;;;14.30;49.16;98147.59;7001877;28;20231;-84
2023/04/25 00:19:28;;;;;;;2.90;2.60;;;;;;;14.45;49.28;98157.88;7012229;28;20213;-84
2023/04/25 00:22:49;;;;;;;2.90;2.60;;;;;;;14.27;50.21;98147.25;7028921;28;20226;-83
2023/04/25 00:26:12;;;;;;;2.83;2.53;;;;;;;14.18;49.38;98125.13;7029204;28;20262;-83
2023/04/25 00:29:34;;;;;;;4.20;2.70;;;;;;;14.48;49.01;98139.22;7028127;28;20203;-83
2023/04/25 00:32:55;;;;;;;11.20;2.90;;;;;;;14.48;49.27;98141.09;7027520;28;20264;-84
2023/04/25 00:36:18;;;;;;;2.77;2.57;;;;;;;14.13;48.60;98078.94;7027736;28;20225;-83
2023/04/25 00:39:39;;;;;;;2.90;2.70;;;;;;;14.53;48.79;98119.50;7028090;28;20570;-84
2023/04/25 00:43:02;;;;;;;2.63;2.43;;;;;;;14.35;48.60;98107.00;7028251;28;20276;-84
2023/04/25 00:46:23;;;;;;;2.77;2.57;;;;;;;14.38;49.18;98108.38;7015113;28;20276;-84
2023/04/25 00:49:45;;;;;;;3.50;2.70;;;;;;;14.28;49.44;98109.03;7002251;28;20270;-84
2023/04/25 00:53:09;;;;;;;2.87;2.57;;;;;;;14.78;48.70;98128.88;7003140;28;20302;-84
2023/04/25 00:56:31;;;;;;;2.90;2.60;;;;;;;14.72;48.33;98104.59;7011044;28;20199;-84
2023/04/25 00:59:54;;;;;;;2.97;2.77;;;;;;;14.97;48.01;98123.97;7010412;28;20253;-84
2023/04/25 01:03:17;;;;;;;4.20;2.90;;;;;;;14.84;48.79;98125.16;7009842;28;20228;-83
2023/04/25 01:06:38;;;;;;;5.03;3.43;;;;;;;14.03;52.21;98118.56;7010659;28;20211;-86
2023/04/25 01:10:00;;;;;;;3.27;2.70;;;;;;;13.91;52.18;98067.16;7011421;28;20299;-84
2023/04/25 01:13:21;;;;;;;2.90;2.70;;;;;;;14.22;51.76;98109.22;7020358;28;20278;-83
2023/04/25 01:16:45;;;;;;;3.30;2.70;;;;;;;13.95;51.50;98108.97;7015900;28;20294;-83
2023/04/25 01:20:09;;;;;;;3.43;2.70;;;;;;;14.13;51.16;98116.06;7014443;28;20577;-84
2023/04/25 01:23:33;;;;;;;3.27;2.80;;;;;;;14.14;51.07;98107.69;7012953;28;20288;-85
2023/04/25 01:26:56;;;;;;;3.17;2.83;;;;;;;14.05;49.98;98046.00;7012552;28;20841;-84
2023/04/25 01:30:17;;;;;;;3.40;3.10;;;;;;;14.50;49.71;98101.81;7011768;28;20197;-84
2023/04/25 01:33:39;;;;;;;3.30;2.80;;;;;;;14.27;50.08;98074.84;7010553;28;20344;-84
2023/04/25 01:37:01;;;;;;;8.87;4.33;;;;;;;14.38;50.29;98081.25;7010825;28;20785;-84
2023/04/25 01:40:25;;;;;;;6.83;2.90;;;;;;;14.12;51.72;98090.03;7012233;28;20205;-84
2023/04/25 01:43:47;;;;;;;3.60;3.30;;;;;;;13.59;53.86;98101.25;7010609;28;20367;-84
2023/04/25 01:47:08;;;;;;;4.00;3.30;;;;;;;12.73;55.56;98031.97;7010425;28;20280;-84
2023/04/25 01:50:30;;;;;;;3.33;3.10;;;;;;;13.60;53.44;98058.72;7010361;28;20202;-83
2023/04/25 01:53:52;;;;;;;5.07;3.03;;;;;;;13.96;52.56;98075.38;7009840;28;20785;-83
2023/04/25 01:57:15;;;;;;;4.00;3.33;;;;;;;13.38;52.79;98019.81;7009743;28;20209;-84
2023/04/25 02:00:38;;;;;;;3.40;3.20;;;;;;;13.84;53.53;98087.34;7008923;28;20678;-84
2023/04/25 02:04:00;;;;;;;4.73;3.57;;;;;;;13.73;54.15;98112.59;7008585;28;20604;-84
2023/04/25 02:07:21;;;;;;;4.10;3.80;;;;;;;13.76;54.64;98104.00;7023274;28;20199;-84
2023/04/25 02:10:43;;;;;;;5.30;3.60;;;;;;;14.03;53.19;98086.03;7032657;28;20228;-83
2023/04/25 02:14:06;;;;;;;3.97;3.60;;;;;;;13.66;53.03;98036.06;7032373;28;20300;-84
2023/04/25 02:17:27;;;;;;;4.80;3.60;;;;;;;13.79;52.20;98027.63;7032607;28;20856;-84
2023/04/25 02:20:49;;;;;;;5.07;3.33;;;;;;;14.36;51.96;98091.53;7032719;28;20283;-84
2023/04/25 02:24:11;;;;;;;3.57;3.27;;;;;;;14.21;52.33;98094.81;7032408;28;20364;-85
2023/04/25 02:27:32;;;;;;;4.40;3.30;;;;;;;13.93;53.80;98086.69;7033233;28;20295;-84
2023/04/25 02:30:55;;;;;;;4.93;3.37;;;;;;;13.98;53.03;98089.50;7033075;28;20669;-84
2023/04/25 02:34:17;;;;;;;3.50;3.20;;;;;;;14.04;52.81;98071.44;7032208;28;20274;-84
2023/04/25 02:37:40;;;;;;;3.70;3.40;;;;;;;13.40;54.69;98021.22;7032501;28;20346;-84
2023/04/25 02:41:01;;;;;;;4.37;3.50;;;;;;;13.68;54.81;98069.16;7008186;28;20295;-84
2023/04/25 02:44:23;;;;;;;3.50;2.97;;;;;;;13.45;53.05;98012.41;7003677;28;20373;-84
2023/04/25 02:47:46;;;;;;;9.23;5.03;;;;;;;13.96;53.09;98074.53;7004904;28;20333;-84
2023/04/25 02:51:07;;;;;;;3.03;2.80;;;;;;;13.75;53.08;98076.06;7004334;28;20238;-85
2023/04/25 02:54:29;;;;;;;3.97;3.67;;;;;;;13.88;53.20;98064.13;7003319;28;20270;-84
2023/04/25 02:57:50;;;;;;;3.87;3.57;;;;;;;13.13;53.76;97967.91;7004219;28;20198;-84
2023/04/25 03:01:12;;;;;;;3.40;3.20;;;;;;;13.72;53.62;98095.53;7004596;28;20750;-84
2023/04/25 03:04:34;;;;;;;9.27;4.20;;;;;;;13.91;53.06;98066.31;7028215;28;20325;-84
2023/04/25 03:07:56;;;;;;;6.53;5.23;;;;;;;13.63;53.81;98045.50;7032096;28;20292;-84
2023/04/25 03:11:20;;;;;;;7.87;4.27;;;;;;;13.78;53.56;98055.78;7033254;28;20296;-84
2023/04/25 03:14:41;;;;;;;6.13;4.00;;;;;;;13.73;52.77;98045.69;7031352;28;20222;-84
2023/04/25 03:18:03;;;;;;;4.43;3.57;;;;;;;13.82;52.87;98070.50;7031620;28;20339;-84
2023/04/25 03:21:26;;;;;;;3.13;2.83;;;;;;;13.77;52.06;98065.00;7035983;28;20688;-84
2023/04/25 03:24:47;;;;;;;4.57;3.70;;;;;;;13.89;52.04;98063.03;7042575;28;20237;-84
2023/04/25 03:28:09;;;;;;;4.63;3.40;;;;;;;13.88;51.19;98021.59;7033416;28;20219;-84
2023/04/25 03:31:31;;;;;;;3.50;2.60;;;;;;;14.16;50.76;98056.75;7032507;28;20591;-85
2023/04/25 03:34:52;;;;;;;3.87;3.30;;;;;;;13.66;50.93;97990.84;7031157;28;20233;-84
2023/04/25 03:38:15;;;;;;;3.37;3.00;;;;;;;13.88;51.35;98056.81;7031473;28;20348;-84
2023/04/25 03:41:37;;;;;;;4.70;3.17;;;;;;;13.87;51.35;98067.91;7031837;28;20289;-85
2023/04/25 03:44:58;;;;;;;5.10;3.47;;;;;;;14.05;50.51;98052.22;7030101;28;20363;-84
2023/04/25 03:48:21;;;;;;;3.73;3.00;;;;;;;13.81;50.48;98053.41;7030834;28;20228;-84
2023/04/25 03:51:42;;;;;;;4.47;3.27;;;;;;;13.87;51.17;98065.19;7030693;28;20227;-84
2023/04/25 03:55:06;;;;;;;3.23;2.90;;;;;;;13.96;50.60;98069.13;7030299;28;20321;-84
2023/04/25 03:58:28;;;;;;;4.23;3.30;;;;;;;13.72;51.45;98048.63;7031522;28;20677;-84
2023/04/25 04:01:49;;;;;;;3.97;3.60;;;;;;;13.77;52.27;98068.53;7030952;28;20346;-82
2023/04/25 04:05:11;;;;;;;4.50;3.10;;;;;;;13.79;51.38;98057.44;7011954;28;20262;-83
2023/04/25 04:08:33;;;;;;;3.67;3.23;;;;;;;13.52;52.28;98030.13;7013932;28;20210;-84
2023/04/25 04:11:55;;;;;;;3.23;3.00;;;;;;;13.76;51.82;98066.06;7017028;28;20339;-85
2023/04/25 04:15:17;;;;;;;3.40;3.10;;;;;;;13.77;51.38;98076.66;7022362;28;21058;-84
2023/04/25 04:18:38;;;;;;;3.50;3.20;;;;;;;13.93;51.06;98075.84;7014143;28;20202;-83
2023/04/25 04:22:01;;;;;;;3.30;3.00;;;;;;;13.57;52.01;98040.25;7020515;28;20252;-84
2023/04/25 04:25:24;;;;;;;3.87;3.57;;;;;;;14.06;51.22;98061.19;7022543;28;20717;-84
2023/04/25 04:28:47;;;;;;;3.73;3.40;;;;;;;14.00;51.82;98067.59;7023344;28;20209;-84
2023/04/25 04:32:09;;;;;;;3.67;3.30;;;;;;;13.81;51.79;98039.06;7020156;28;20283;-84
2023/04/25 04:35:30;;;;;;;3.70;3.30;;;;;;;13.83;51.92;98042.34;7017627;28;20227;-84
2023/04/25 04:38:52;;;;;;;5.23;3.90;;;;;;;13.85;51.95;98083.56;7028408;28;20266;-84
2023/04/25 04:42:13;;;;;;;5.97;3.63;;;;;;;13.74;52.38;98077.13;7020876;28;20217;-84
2023/04/25 04:45:37;;;;;;;4.57;3.27;;;;;;;13.99;52.58;98069.47;7023742;28;20300;-85
2023/04/25 04:48:59;;;;;;;6.30;4.43;;;;;;;14.20;51.71;98076.91;7033175;28;20564;-84
2023/04/25 04:52:20;;;;;;;3.70;3.17;;;;;;;14.18;50.86;98067.34;7032752;28;20230;-83
2023/04/25 04:55:42;;;;;;;5.80;3.20;;;;;;;14.27;50.90;98082.19;7031617;28;20300;-85
2023/04/25 04:59:04;;;;;;;3.80;3.50;;;;;;;14.13;51.41;98067.25;7023342;28;20575;-83
2023/04/25 05:02:27;;;;;;;5.43;3.20;;;;;;;13.56;52.49;98015.03;7026387;28;20284;-85
2023/04/25 05:05:48;;;;;;;4.83;3.23;;;;;;;14.29;52.15;98088.19;7010658;28;20252;-83
2023/04/25 05:09:10;;;;;;;4.40;3.53;;;;;;;14.32;51.09;98098.53;7017279;28;20229;-84
2023/04/25 05:12:31;;;;;;;5.60;3.50;;;;;;;14.19;52.11;98102.38;7015765;28;20201;-84
2023/04/25 05:15:53;;;;;;;6.60;3.40;;;;;;;14.18;50.62;98099.88;7020284;28;20225;-84
2023/04/25 05:19:16;;;;;;;4.90;3.97;;;;;;;14.04;51.01;98107.50;7021721;28;20331;-83
2023/04/25 05:22:37;;;;;;;4.63;3.53;;;;;;;13.94;51.63;98095.66;7013583;28;20210;-82
2023/04/25 05:25:59;;;;;;;5.67;3.50;;;;;;;14.31;50.08;98096.88;7027379;28;20285;-83
2023/04/25 05:29:21;;;;;;;3.80;3.50;;;;;;;14.32;50.34;98096.63;7040121;28;20213;-83
2023/04/25 05:32:42;;;;;;;4.37;3.43;;;;;;;14.27;50.56;98103.88;7034146;28;20202;-84
2023/04/25 05:36:06;;;;;;;6.70;3.37;;;;;;;14.20;50.20;98098.59;7026162;28;20321;-84
2023/04/25 05:39:28;;;;;;;4.87;3.80;;;;;;;14.13;50.38;98088.94;7009179;28;20375;-85
2023/04/25 05:42:49;;;;;;;6.77;3.80;;;;;;;14.21;50.96;98105.66;7009634;28;20287;-84
2023/04/25 05:46:11;;;;;;;4.23;3.83;;;;;;;14.75;50.09;98115.78;7010751;28;20317;-85
2023/04/25 05:49:32;;;;;;;7.57;4.20;;;;;;;14.84;49.51;98110.75;7024609;28;20228;-83
2023/04/25 05:52:55;;;;;;;6.20;3.90;;;;;;;14.68;50.26;98109.69;7034085;28;20682;-84
2023/04/25 05:56:16;;;;;;;5.60;3.53;;;;;;;14.24;51.03;98104.34;7012864;28;20303;-84
2023/04/25 05:59:38;;;;;;;4.53;3.80;;;;;;;13.99;50.67;98107.41;7016363;28;20261;-82
2023/04/25 06:03:00;;;;;;;7.10;3.87;;;;;;;14.05;51.17;98063.06;7018544;28;20209;-84
2023/04/25 06:06:22;;;;;;;5.00;4.57;;;;;;;14.17;52.83;98109.09;7008136;28;20294;-83
2023/04/25 06:09:45;;;;;;;5.07;4.17;;;;;;;14.12;52.70;98114.41;7007243;28;20205;-84
2023/04/25 06:13:07;;;;;;;6.60;5.00;;;;;;;13.83;54.09;98069.44;7007775;28;20211;-84
2023/04/25 06:16:28;;;;;;;5.93;4.90;;;;;;;13.70;54.83;98086.00;7035259;28;20280;-86
2023/04/25 06:19:50;;;;;;;4.93;4.50;;;;;;;14.09;55.12;98117.63;7035480;28;20236;-84
2023/04/25 06:23:11;;;;;;;5.93;4.60;;;;;;;13.98;55.04;98119.31;7025604;28;20618;-84
2023/04/25 06:26:34;;;;;;;4.63;4.23;;;;;;;13.79;54.38;98117.03;7024727;28;20319;-85
2023/04/25 06:29:56;;;;;;;5.27;4.40;;;;;;;14.00;54.51;98121.78;7013109;28;20297;-85
2023/04/25 06:33:17;;;;;;;5.50;5.00;;;;;;;13.94;54.98;98090.25;7019229;28;20276;-85
2023/04/25 06:36:39;;;;;;;5.70;4.50;;;;;;;14.49;53.28;98096.63;7027886;28;20236;-86
2023/04/25 06:40:00;;;;;;;6.07;4.47;;;;;;;14.64;53.54;98096.88;7038225;28;20227;-86
2023/04/25 06:43:23;;;;;;;4.53;3.70;;;;;;;14.48;52.93;98084.16;7018986;28;20304;-85
2023/04/25 06:46:45;;;;;;;4.80;4.40;;;;;;;14.41;53.08;98095.19;7014392;28;20222;-84
2023/04/25 06:50:07;;;;;;;4.77;3.93;;;;;;;14.29;51.72;98094.41;7021388;28;20290;-85
2023/04/25 06:53:29;;;;;;;4.23;3.83;;;;;;;14.78;51.78;98073.75;7032754;28;20244;-85
2023/04/25 06:56:50;;;;;;;4.30;3.90;;;;;;;15.04;50.95;98094.78;7034135;28;20286;-84
2023/04/25 07:00:15;;;;;;;4.80;4.40;;;;;;;15.05;50.69;98094.50;7019097;28;20210;-84
2023/04/25 07:03:37;;;;;;;4.90;4.40;;;;;;;14.91;50.46;98038.94;7015638;28;20286;-84
2023/04/25 07:07:00;;;;;;;5.83;4.53;;;;;;;15.63;49.64;98102.09;7034368;28;20201;-83
2023/04/25 07:10:22;;;;;;;4.90;4.50;;;;;;;15.39;48.89;98095.28;7034147;28;20208;-83
2023/04/25 07:13:43;;;;;;;4.57;4.17;;;;;;;14.85;49.37;98025.53;7032924;28;20634;-84
2023/04/25 07:17:06;;;;;;;5.17;4.50;;;;;;;15.33;50.32;98101.72;7033682;28;20232;-82
2023/04/25 07:20:28;;;;;;;4.90;4.47;;;;;;;15.16;50.59;98100.91;7033440;28;20211;-83
2023/04/25 07:23:50;;;;;;;5.20;4.70;;;;;;;15.36;49.95;98104.75;7033330;28;20449;-83
2023/04/25 07:27:11;;;;;;;5.00;4.57;;;;;;;15.28;49.46;98109.75;7033550;28;20214;-83
2023/04/25 07:30:34;;;;;;;4.77;4.40;;;;;;;14.74;50.64;98070.72;7028668;28;20289;-85
2023/04/25 07:33:57;;;;;;;5.00;4.50;;;;;;;15.06;50.96;98109.75;7004762;28;20335;-82
2023/04/25 07:37:19;;;;;;;5.70;4.90;;;;;;;15.19;49.54;98117.53;7005779;28;20254;-86
2023/04/25 07:40:41;;;;;;;5.40;4.33;;;;;;;15.20;50.44;98129.19;7029008;28;20213;-85
2023/04/25 07:44:02;;;;;;;5.47;4.53;;;;;;;14.95;50.78;98126.97;7021889;28;20317;-86
2023/04/25 07:47:24;;;;;;;5.03;4.50;;;;;;;14.83;51.13;98118.09;7034713;28;20214;-86
2023/04/25 07:50:47;;;;;;;5.17;4.70;;;;;;;14.95;52.01;98136.97;7034682;28;20673;-84
2023/04/25 07:54:08;;;;;;;5.67;5.17;;;;;;;14.70;53.55;98144.72;7033515;28;20325;-85
2023/04/25 07:57:30;;;;;;;6.63;5.13;;;;;;;14.48;53.33;98150.06;7016663;28;20195;-85
2023/04/25 08:00:52;;;;;;;6.83;5.27;;;;;;;14.63;53.83;98150.31;7032418;28;20220;-85
2023/04/25 08:04:13;;;;;;;7.30;4.93;;;;;;;14.56;53.95;98151.53;7018494;28;20322;-85
2023/04/25 08:07:36;;;;;;;6.00;4.90;;;;;;;14.48;52.98;98120.25;7012873;28;20225;-86
2023/04/25 08:10:58;;;;;;;5.33;4.83;;;;;;;14.95;51.55;98137.81;7013541;28;20673;-85
2023/04/25 08:14:19;;;;;;;5.90;4.87;;;;;;;14.70;53.80;98150.97;7020705;28;20839;-86
2023/04/25 08:17:41;;;;;;;5.37;4.90;;;;;;;13.98;53.09;98094.13;7016573;28;20336;-85
2023/04/25 08:21:02;;;;;;;8.97;7.73;;;;;;;14.47;54.43;98156.56;7024364;28;20629;-86
2023/04/25 08:24:25;;;;;;;7.60;6.53;;;;;;;14.42;54.20;98158.38;7032107;28;20694;-86
2023/04/25 08:27:47;;;;;;;7.53;6.67;;;;;;;14.51;54.77;98167.75;7033975;28;20687;-86
2023/04/25 08:31:08;;;;;;;7.70;6.50;;;;;;;14.69;54.52;98179.16;7012622;28;20293;-86
2023/04/25 08:34:30;;;;;;;6.70;6.10;;;;;;;14.01;56.33;98181.19;7016463;28;20271;-85
2023/04/25 08:37:51;;;;;;;7.37;6.67;;;;;;;14.25;56.84;98192.75;7032383;28;20668;-84
2023/04/25 08:41:15;;;;;;;8.47;6.87;;;;;;;14.38;57.27;98206.00;7029262;28;20294;-85
2023/04/25 08:44:37;;;;;;;7.60;6.80;;;;;;;14.18;57.58;98206.44;7006379;28;20227;-87
2023/04/25 08:47:58;;;;;;;6.47;5.77;;;;;;;14.26;56.62;98203.38;7032373;28;20209;-87
2023/04/25 08:51:24;;;;;;;8.17;7.33;;;;;;;14.10;58.14;98214.16;7031151;28;20281;-90
2023/04/25 08:54:47;;;;;;;7.17;6.50;;;;;;;14.24;57.72;98185.69;7017409;28;20612;-85
2023/04/25 08:58:10;;;;;;;9.27;7.50;;;;;;;13.98;58.78;98216.06;7032252;28;20206;-83
2023/04/25 09:01:32;;;;;;;8.63;7.73;;;;;;;14.08;58.27;98208.13;7033900;28;20557;-85
2023/04/25 09:04:55;;;;;;;9.37;7.73;;;;;;;14.17;58.71;98223.75;7013375;28;20757;-85
2023/04/25 09:08:17;;;;;;;8.33;7.40;;;;;;;14.20;58.24;98236.88;7005698;28;20204;-89
2023/04/25 09:11:39;;;;;;;8.73;7.83;;;;;;;14.49;57.79;98237.69;7002964;28;20242;-82
2023/04/25 09:15:07;;;;;;;7.50;6.80;;;;;;;14.64;56.94;98249.63;7024951;28;20258;-84
2023/04/25 09:18:30;;;;;;;8.40;7.60;;;;;;;14.51;57.10;98236.38;7037240;28;20205;-91
2023/04/25 09:21:52;;;;;;;8.80;7.90;;;;;;;14.43;57.99;98254.94;7036011;28;20203;-88
2023/04/25 09:25:14;;;;;;;8.67;7.87;;;;;;;13.96;58.22;98174.81;7036052;28;20229;-85
2023/04/25 09:28:37;;;;;;;9.97;8.17;;;;;;;14.42;58.44;98269.56;7032866;28;20916;-85
2023/04/25 09:32:19;;;;;;;13.30;9.93;;;;;;;14.46;57.63;98262.59;7022982;28;20295;-85
2023/04/25 09:35:42;;;;;;;7.40;6.70;;;;;;;13.67;57.05;98201.06;7010885;28;20249;-89
2023/04/25 09:39:15;;;;;;;5.47;4.97;;;;;;;13.82;58.09;98284.56;7035258;28;20626;-85
2023/04/25 09:42:36;;;;;;;6.17;5.30;;;;;;;13.30;58.29;98278.25;7034850;28;20222;-84
2023/04/25 09:46:00;;;;;;;5.63;5.00;;;;;;;13.53;58.01;98285.53;7035889;28;20226;-84
2023/04/25 09:49:22;;;;;;;5.50;5.00;;;;;;;13.81;57.97;98301.88;7052265;28;20195;-91
2023/04/25 09:52:44;;;;;;;5.17;4.77;;;;;;;13.64;57.47;98299.06;7007761;28;20211;-85
2023/04/25 09:56:07;;;;;;;5.60;4.90;;;;;;;13.69;58.43;98307.28;7012930;28;20229;-84
2023/04/25 09:59:31;;;;;;;4.80;4.40;;;;;;;13.54;58.48;98296.13;7017390;28;20540;-83
2023/04/25 10:02:53;;;;;;;5.00;4.50;;;;;;;13.55;57.39;98283.41;7015662;28;20198;-82
2023/04/25 10:06:20;;;;;;;5.90;4.50;;;;;;;13.89;57.43;98301.50;7026001;28;20226;-83
2023/04/25 10:09:42;;;;;;;5.93;5.00;;;;;;;13.74;57.16;98293.06;7041779;28;20585;-84
2023/04/25 10:13:06;;;;;;;5.77;5.17;;;;;;;13.70;58.93;98289.16;7029472;28;20273;-83
2023/04/25 10:16:27;;;;;;;5.10;4.60;;;;;;;13.46;58.35;98320.84;7011043;28;20266;-85
2023/04/25 10:19:50;;;;;;;5.23;4.80;;;;;;;13.76;59.07;98324.25;7023665;28;20289;-84
2023/04/25 10:23:14;;;;;;;5.53;5.03;;;;;;;13.84;58.95;98323.06;7022979;28;20249;-89
2023/04/25 10:26:36;;;;;;;8.00;5.27;;;;;;;13.68;59.25;98324.63;7011781;28;20694;-84
2023/04/25 10:30:06;;;;;;;6.13;4.53;;;;;;;14.01;56.95;98337.53;7017984;28;20231;-88
2023/04/25 10:33:33;;;;;;;5.83;5.20;;;;;;;13.03;58.17;98301.38;7035218;28;20227;-83
2023/04/25 10:36:55;;;;;;;6.40;5.17;;;;;;;13.62;58.13;98330.97;7037198;28;20670;-84
2023/04/25 10:40:23;;;;;;;5.83;4.17;;;;;;;13.24;58.01;98337.91;7036090;28;20226;-83
2023/04/25 10:43:45;;;;;;;4.03;3.73;;;;;;;13.59;57.97;98360.44;7036208;28;20220;-85
2023/04/25 10:47:09;;;;;;;3.40;3.10;;;;;;;12.97;59.07;98342.06;7035367;28;20263;-85
2023/04/25 10:50:38;;;;;;;4.00;3.00;;;;;;;12.94;58.86;98343.34;7035162;28;20299;-84
2023/04/25 10:54:01;;;;;;;4.27;3.87;;;;;;;12.87;60.51;98368.84;7034829;28;20262;-84
2023/04/25 10:57:37;;;;;;;4.90;4.13;;;;;;;12.59;60.51;98385.66;7035369;28;20247;-83
2023/04/25 11:00:59;;;;;;;4.90;4.40;;;;;;;12.74;60.39;98404.19;7011105;28;20275;-85
2023/04/25 11:04:22;;;;;;;4.10;3.70;;;;;;;12.39;60.78;98403.19;7016986;28;20303;-85
2023/04/25 11:07:51;;;;;;;3.83;3.53;;;;;;;12.35;60.42;98392.00;7013720;28;20214;-85
2023/04/25 11:11:12;;;;;;;5.00;4.20;;;;;;;12.46;60.28;98406.63;7007771;28;20234;-85
2023/04/25 11:14:36;;;;;;;6.13;5.53;;;;;;;12.31;62.03;98419.69;7005762;28;20723;-87
2023/04/25 11:17:57;;;;;;;4.50;4.10;;;;;;;12.12;60.40;98418.03;7007566;28;20221;-87
2023/04/25 11:21:19;;;;;;;5.83;5.07;;;;;;;12.27;61.27;98405.00;7006996;28;20288;-86
2023/04/25 11:24:40;;;;;;;5.03;4.53;;;;;;;12.25;60.32;98424.13;7005924;28;20359;-88
2023/04/25 11:28:02;;;;;;;6.33;4.77;;;;;;;12.31;59.23;98430.50;7033668;28;20252;-88
2023/04/25 11:31:25;;;;;;;3.97;3.57;;;;;;;12.05;57.79;98425.41;7034153;28;20201;-88
2023/04/25 11:34:47;;;;;;;4.10;3.70;;;;;;;11.93;57.42;98429.88;7033866;28;20221;-88
2023/04/25 11:38:09;;;;;;;3.97;3.67;;;;;;;12.34;57.56;98419.25;7020478;28;20205;-88
2023/04/25 11:41:31;;;;;;;3.83;3.53;;;;;;;12.20;56.79;98437.50;7008018;28;20300;-86
2023/04/25 11:44:53;;;;;;;4.40;4.00;;;;;;;13.35;56.07;98430.00;7008629;28;20230;-86
2023/04/25 11:48:16;;;;;;;4.50;4.10;;;;;;;13.75;54.39;98417.44;7010699;28;20695;-86
2023/04/25 11:51:40;;;;;;;3.70;3.40;;;;;;;14.14;52.88;98410.47;7055085;28;20229;-86
2023/04/25 11:55:02;;;;;;;3.97;3.67;;;;;;;14.31;51.32;98419.56;7058636;28;20213;-86
2023/04/25 11:58:24;;;;;;;4.70;4.30;;;;;;;14.25;51.98;98428.66;7052664;28;20737;-86
2023/04/25 12:01:49;;;;;;;4.83;4.43;;;;;;;14.54;51.72;98430.38;7032885;28;20202;-87
2023/04/25 12:05:13;;;;;;;8.43;6.23;;;;;;;14.80;51.04;98427.16;7032681;28;20262;-85
2023/04/25 12:08:35;;;;;;;6.43;5.30;;;;;;;14.69;50.68;98417.16;7056434;28;20265;-87
2023/04/25 12:11:58;;;;;;;3.43;3.10;;;;;;;14.09;49.52;98427.47;7060263;28;20273;-86
2023/04/25 12:15:26;;;;;;;3.20;3.00;;;;;;;14.32;49.77;98432.06;7060311;28;20230;-87
2023/04/25 12:18:47;;;;;;;4.17;3.73;;;;;;;14.65;53.05;98438.50;7060109;28;20196;-87
2023/04/25 12:22:22;;;;;;;4.60;3.23;;;;;;;14.19;52.37;98446.72;7045338;28;20211;-86
2023/04/25 12:25:45;;;;;;;4.40;4.00;;;;;;;14.15;56.09;98431.94;7031706;28;20364;-86
2023/04/25 12:29:17;;;;;;;4.30;3.90;;;;;;;14.34;55.13;98438.91;7025279;28;20203;-86
2023/04/25 12:32:38;;;;;;;4.30;3.93;;;;;;;14.08;57.07;98449.38;7027230;28;20193;-85
2023/04/25 12:36:03;;;;;;;3.77;3.43;;;;;;;14.09;56.31;98440.22;7018600;28;20251;-86
2023/04/25 12:39:26;;;;;;;4.67;4.23;;;;;;;14.38;54.92;98444.69;7032365;28;20204;-86
2023/04/25 12:42:48;;;;;;;4.00;3.70;;;;;;;13.98;55.81;98424.78;7020371;28;20210;-86
2023/04/25 12:46:09;;;;;;;3.77;3.40;;;;;;;13.58;53.73;98427.31;7031743;28;20684;-86
2023/04/25 12:49:31;;;;;;;3.70;3.40;;;;;;;13.84;55.02;98458.56;7031356;28;20229;-86
2023/04/25 12:52:52;;;;;;;5.17;3.67;;;;;;;13.93;55.35;98466.09;7030835;28;20297;-86
2023/04/25 12:56:15;;;;;;;3.63;3.33;;;;;;;14.67;52.79;98471.66;7031432;28;20607;-86
2023/04/25 12:59:37;;;;;;;3.87;3.57;;;;;;;14.28;54.55;98455.31;7031355;28;20286;-86
2023/04/25 13:02:58;;;;;;;4.17;3.80;;;;;;;14.15;54.23;98458.25;7018624;28;20331;-86
2023/04/25 13:06:21;;;;;;;5.10;4.60;;;;;;;14.52;53.73;98460.47;7003093;28;20712;-86
2023/04/25 13:09:42;;;;;;;5.23;4.50;;;;;;;14.31;55.89;98439.41;7004991;28;20293;-84
2023/04/25 13:13:05;;;;;;;5.27;4.87;;;;;;;14.69;55.27;98464.09;7011275;28;20289;-82
2023/04/25 13:16:27;;;;;;;5.03;4.53;;;;;;;15.46;51.66;98447.16;7020234;28;20201;-83
2023/04/25 13:19:48;;;;;;;5.33;4.83;;;;;;;15.76;51.11;98452.31;7003939;28;20245;-80
2023/04/25 13:23:10;;;;;;;5.77;5.20;;;;;;;15.69;53.42;98440.78;7029713;28;20209;-82
2023/04/25 13:26:31;;;;;;;7.97;5.43;;;;;;;16.37;48.19;98452.19;7038262;28;20234;-82
2023/04/25 13:29:54;;;;;;;5.43;4.73;;;;;;;16.59;45.87;98432.13;7036606;28;20206;-86
2023/04/25 13:33:16;;;;;;;6.27;5.33;;;;;;;15.75;50.07;98453.41;7034690;28;20303;-81
2023/04/25 13:36:37;;;;;;;5.53;5.03;;;;;;;15.14;50.52;98454.16;7006207;28;20210;-81
2023/04/25 13:40:00;;;;;;;5.47;4.97;;;;;;;15.49;51.83;98463.00;7005793;28;20222;-81
2023/04/25 13:43:22;;;;;;;5.83;5.23;;;;;;;15.32;52.62;98444.97;7004111;28;20266;-80
2023/04/25 13:46:46;;;;;;;6.40;5.80;;;;;;;15.64;51.53;98399.94;7004411;28;20224;-81
2023/04/25 13:50:08;;;;;;;10.97;6.50;;;;;;;15.66;50.79;98428.53;7004183;28;20240;-81
2023/04/25 13:53:30;;;;;;;10.87;6.57;;;;;;;15.89;51.10;98452.81;7005384;28;20255;-81
2023/04/25 13:56:52;;;;;;;8.43;6.37;;;;;;;15.86;50.84;98458.75;7007087;28;20289;-81
2023/04/25 14:00:14;;;;;;;7.83;6.00;;;;;;;15.58;50.93;98450.66;7009409;28;20560;-80
2023/04/25 14:03:37;;;;;;;7.10;6.10;;;;;;;15.31;50.65;98463.19;7025519;28;20216;-84
2023/04/25 14:06:59;;;;;;;9.50;7.10;;;;;;;14.67;54.33;98462.66;7023467;28;20255;-84
2023/04/25 14:10:21;;;;;;;8.80;6.27;;;;;;;14.89;52.68;98464.53;7017570;28;20348;-84
2023/04/25 14:13:42;;;;;;;8.50;6.87;;;;;;;14.73;52.06;98467.97;7016190;28;20460;-84
2023/04/25 14:17:04;;;;;;;9.00;6.40;;;;;;;15.72;50.58;98460.16;7017458;28;20226;-83
2023/04/25 14:20:27;;;;;;;7.93;7.23;;;;;;;15.20;52.48;98455.06;7041892;28;20749;-83
2023/04/25 14:23:48;;;;;;;7.37;6.67;;;;;;;15.57;51.10;98437.31;7033668;28;20271;-83
2023/04/25 14:27:10;;;;;;;8.37;7.27;;;;;;;15.64;49.93;98457.00;7015877;28;20232;-83
2023/04/25 14:30:31;;;;;;;8.97;8.07;;;;;;;16.09;50.03;98452.31;7033614;28;20248;-80
2023/04/25 14:33:53;;;;;;;10.30;7.23;;;;;;;16.77;48.33;98452.78;7013105;28;20238;-82
2023/04/25 14:37:17;;;;;;;7.37;6.67;;;;;;;16.05;46.50;98432.13;7041033;28;20220;-82
2023/04/25 14:40:39;;;;;;;10.27;7.23;;;;;;;15.58;49.88;98456.09;7042251;28;20197;-82
2023/04/25 14:44:01;;;;;;;9.83;7.50;;;;;;;15.14;49.65;98458.75;7040520;28;20225;-81
2023/04/25 14:47:22;;;;;;;8.53;7.37;;;;;;;16.07;48.67;98459.91;7040397;28;20234;-82
2023/04/25 14:50:44;;;;;;;9.60;6.90;;;;;;;16.20;46.99;98470.44;7012304;28;20210;-82
2023/04/25 14:54:07;;;;;;;8.00;7.10;;;;;;;16.49;46.75;98461.94;7014418;28;20239;-82
2023/04/25 14:57:29;;;;;;;6.87;6.17;;;;;;;16.04;47.96;98439.47;7040132;28;20197;-82
2023/04/25 15:00:50;;;;;;;10.00;7.90;;;;;;;16.07;46.72;98452.56;7037624;28;20212;-86
2023/04/25 15:04:12;;;;;;;7.57;6.83;;;;;;;16.26;46.68;98474.88;7036694;28;20696;-81
2023/04/25 15:07:34;;;;;;;6.97;5.93;;;;;;;16.14;46.25;98466.81;7036688;28;20232;-81
2023/04/25 15:10:57;;;;;;;6.53;5.83;;;;;;;15.95;45.78;98459.16;7039272;28;20205;-81
2023/04/25 15:14:19;;;;;;;7.17;6.13;;;;;;;16.23;45.42;98469.94;7036774;28;20236;-81
2023/04/25 15:17:42;;;;;;;7.57;6.43;;;;;;;16.12;46.13;98457.25;7041014;28;20207;-81
2023/04/25 15:21:04;;;;;;;6.33;5.73;;;;;;;16.32;45.61;98473.88;7025203;28;20279;-81
2023/04/25 15:24:26;;;;;;;7.17;6.30;;;;;;;16.28;46.23;98470.81;7009805;28;20226;-81
2023/04/25 15:27:51;;;;;;;8.53;6.47;;;;;;;16.14;46.04;98453.22;7013944;28;20222;-81
2023/04/25 15:31:13;;;;;;;6.57;5.87;;;;;;;16.01;46.43;98452.72;7009450;28;20199;-81
2023/04/25 15:34:34;;;;;;;7.10;6.17;;;;;;;16.22;46.38;98465.59;7008361;28;20334;-82
2023/04/25 15:37:56;;;;;;;7.10;6.03;;;;;;;16.29;46.37;98475.19;7010765;28;20204;-83
2023/04/25 15:41:18;;;;;;;7.40;5.53;;;;;;;16.13;45.09;98480.66;7012517;28;20370;-82
2023/04/25 15:44:41;;;;;;;7.67;5.73;;;;;;;16.70;44.68;98476.66;7039969;28;20225;-82
2023/04/25 15:48:02;;;;;;;6.03;4.57;;;;;;;16.72;43.95;98483.50;7037020;28;20250;-82
2023/04/25 15:51:24;;;;;;;8.13;5.80;;;;;;;16.64;44.17;98488.53;7044353;28;20201;-83
2023/04/25 15:54:45;;;;;;;7.13;4.37;;;;;;;16.57;43.38;98472.38;7037857;28;20249;-88